createdAt,value
2018-08-21T00:00:04.514Z,1021.85
2018-08-21T00:01:30.940Z,1021.86
2018-08-21T00:02:58.323Z,1021.85
2018-08-21T00:04:25.756Z,1021.83
2018-08-21T00:05:53.349Z,1021.83
2018-08-21T00:07:20.631Z,1021.85
2018-08-21T00:08:48.388Z,1021.87
2018-08-21T00:10:15.815Z,1021.87
2018-08-21T00:11:42.762Z,1021.87
2018-08-21T00:13:10.160Z,1021.87
2018-08-21T00:14:37.692Z,1021.88
2018-08-21T00:16:05.276Z,1021.90
2018-08-21T00:17:32.189Z,1021.91
2018-08-21T00:18:58.401Z,1021.91
2018-08-21T00:20:26.034Z,1021.90
2018-08-21T00:21:53.521Z,1021.91
2018-08-21T00:23:20.954Z,1021.92
2018-08-21T00:24:48.124Z,1021.92
2018-08-21T00:26:15.587Z,1021.96
2018-08-21T00:27:43.123Z,1021.99
2018-08-21T00:29:09.704Z,1022.05
2018-08-21T00:30:37.082Z,1022.05
2018-08-21T00:32:04.587Z,1022.07
2018-08-21T00:33:31.281Z,1022.09
2018-08-21T00:34:58.669Z,1022.10
2018-08-21T00:36:25.252Z,1022.12
2018-08-21T00:37:52.366Z,1022.11
2018-08-21T00:39:19.786Z,1022.11
2018-08-21T00:40:47.169Z,1022.12
2018-08-21T00:42:14.640Z,1022.12
2018-08-21T00:43:42.275Z,1022.10
2018-08-21T00:45:08.973Z,1022.07
2018-08-21T00:46:36.387Z,1022.08
2018-08-21T00:48:03.644Z,1022.06
2018-08-21T00:49:31.307Z,1022.10
2018-08-21T00:50:58.345Z,1022.11
2018-08-21T00:52:25.942Z,1022.13
2018-08-21T00:53:52.724Z,1022.17
2018-08-21T00:55:20.234Z,1022.18
2018-08-21T00:56:47.613Z,1022.20
2018-08-21T00:58:15.015Z,1022.22
2018-08-21T00:59:42.628Z,1022.21
2018-08-21T01:01:10.095Z,1022.20
2018-08-21T01:02:37.576Z,1022.21
2018-08-21T01:04:05.111Z,1022.23
2018-08-21T01:05:32.618Z,1022.22
2018-08-21T01:07:00.180Z,1022.23
2018-08-21T01:08:27.613Z,1022.22
2018-08-21T01:09:57.059Z,1022.26
2018-08-21T01:11:22.274Z,1022.31
2018-08-21T01:12:48.500Z,1022.33
2018-08-21T01:14:15.875Z,1022.34
2018-08-21T01:15:43.482Z,1022.38
2018-08-21T01:17:10.033Z,1022.39
2018-08-21T01:18:36.365Z,1022.39
2018-08-21T01:20:03.842Z,1022.44
2018-08-21T01:21:31.334Z,1022.49
2018-08-21T01:22:58.636Z,1022.53
2018-08-21T01:24:25.860Z,1022.52
2018-08-21T01:25:53.241Z,1022.52
2018-08-21T01:27:20.793Z,1022.52
2018-08-21T01:28:48.181Z,1022.52
2018-08-21T01:30:14.962Z,1022.56
2018-08-21T01:31:41.789Z,1022.57
2018-08-21T01:33:09.178Z,1022.58
2018-08-21T01:34:36.659Z,1022.61
2018-08-21T01:36:04.090Z,1022.62
2018-08-21T01:37:31.437Z,1022.65
2018-08-21T01:38:58.207Z,1022.66
2018-08-21T01:40:25.601Z,1022.69
2018-08-21T01:41:52.838Z,1022.73
2018-08-21T01:43:19.956Z,1022.75
2018-08-21T01:44:47.299Z,1022.78
2018-08-21T01:46:13.847Z,1022.80
2018-08-21T01:47:41.043Z,1022.81
2018-08-21T01:49:08.566Z,1022.84
2018-08-21T01:50:34.700Z,1022.84
2018-08-21T01:52:02.103Z,1022.86
2018-08-21T01:53:29.380Z,1022.87
2018-08-21T01:54:56.922Z,1022.86
2018-08-21T02:01:14.565Z,1022.88
2018-08-21T02:02:41.396Z,1022.90
2018-08-21T02:04:07.596Z,1022.90
2018-08-21T02:05:35.000Z,1022.90
2018-08-21T02:07:01.735Z,1022.89
2018-08-21T02:08:29.033Z,1022.89
2018-08-21T02:09:56.565Z,1022.88
2018-08-21T02:11:23.400Z,1022.90
2018-08-21T02:19:08.704Z,1022.97
2018-08-21T02:44:09.401Z,1022.93
2018-08-21T02:45:36.029Z,1022.91
2018-08-21T02:47:02.154Z,1022.91
2018-08-21T02:48:29.505Z,1022.90
2018-08-21T02:49:56.459Z,1022.90
2018-08-21T02:51:23.345Z,1022.92
2018-08-21T02:52:50.310Z,1022.89
2018-08-21T02:54:16.820Z,1022.91
2018-08-21T02:55:44.376Z,1022.93
2018-08-21T02:57:11.685Z,1022.95
2018-08-21T02:58:39.184Z,1022.96
2018-08-21T03:00:06.683Z,1022.95
2018-08-21T03:01:34.161Z,1022.96
2018-08-21T03:03:00.360Z,1022.96
2018-08-21T03:04:26.898Z,1022.95
2018-08-21T03:05:53.666Z,1022.98
2018-08-21T03:07:20.659Z,1023.01
2018-08-21T03:08:48.082Z,1023.02
2018-08-21T03:10:15.372Z,1023.04
2018-08-21T03:11:41.826Z,1023.07
2018-08-21T03:13:09.368Z,1023.08
2018-08-21T03:14:36.678Z,1023.10
2018-08-21T03:16:03.496Z,1023.11
2018-08-21T03:17:30.850Z,1023.10
2018-08-21T03:18:58.452Z,1023.07
2018-08-21T03:20:25.905Z,1023.06
2018-08-21T03:21:53.472Z,1023.03
2018-08-21T03:23:20.197Z,1023.00
2018-08-21T03:24:46.610Z,1023.01
2018-08-21T03:26:13.910Z,1023.02
2018-08-21T03:27:41.419Z,1023.02
2018-08-21T03:29:11.992Z,1023.05
2018-08-21T03:30:36.435Z,1023.07
2018-08-21T03:32:03.938Z,1023.07
2018-08-21T03:33:31.454Z,1023.11
2018-08-21T03:34:58.104Z,1023.13
2018-08-21T03:36:25.487Z,1023.12
2018-08-21T03:37:52.120Z,1023.10
2018-08-21T03:39:18.460Z,1023.09
2018-08-21T03:40:45.906Z,1023.13
2018-08-21T03:42:13.316Z,1023.16
2018-08-21T03:43:39.737Z,1023.17
2018-08-21T03:45:06.012Z,1023.15
2018-08-21T03:46:33.420Z,1023.13
2018-08-21T03:48:01.701Z,1023.11
2018-08-21T03:49:26.926Z,1023.11
2018-08-21T03:50:53.921Z,1023.14
2018-08-21T03:52:21.308Z,1023.16
2018-08-21T03:53:48.661Z,1023.16
2018-08-21T03:55:15.991Z,1023.16
2018-08-21T03:56:43.580Z,1023.14
2018-08-21T03:58:10.889Z,1023.14
2018-08-21T03:59:38.577Z,1023.13
2018-08-21T04:01:05.203Z,1023.14
2018-08-21T04:02:31.526Z,1023.14
2018-08-21T04:03:58.720Z,1023.15
2018-08-21T04:05:26.261Z,1023.13
2018-08-21T04:06:53.774Z,1023.12
2018-08-21T04:08:21.144Z,1023.12
2018-08-21T04:09:47.515Z,1023.13
2018-08-21T04:11:22.974Z,1023.16
2018-08-21T04:12:42.201Z,1023.20
2018-08-21T04:14:09.591Z,1023.22
2018-08-21T04:15:38.007Z,1023.20
2018-08-21T04:17:04.473Z,1023.18
2018-08-21T04:18:31.911Z,1023.16
2018-08-21T04:19:59.535Z,1023.15
2018-08-21T04:21:26.966Z,1023.19
2018-08-21T04:22:53.887Z,1023.21
2018-08-21T04:24:21.179Z,1023.24
2018-08-21T04:25:48.732Z,1023.21
2018-08-21T04:27:16.016Z,1023.22
2018-08-21T04:28:43.260Z,1023.22
2018-08-21T04:30:10.704Z,1023.24
2018-08-21T04:34:52.083Z,1023.21
2018-08-21T04:36:18.786Z,1023.23
2018-08-21T04:37:46.315Z,1023.23
2018-08-21T04:39:16.736Z,1023.27
2018-08-21T04:40:40.150Z,1023.26
2018-08-21T04:42:06.587Z,1023.25
2018-08-21T04:43:32.917Z,1023.28
2018-08-21T04:45:00.369Z,1023.31
2018-08-21T04:46:27.933Z,1023.33
2018-08-21T04:47:54.445Z,1023.36
2018-08-21T04:49:20.998Z,1023.35
2018-08-21T04:50:48.322Z,1023.31
2018-08-21T04:52:15.912Z,1023.31
2018-08-21T04:53:42.055Z,1023.31
2018-08-21T04:56:56.034Z,1023.34
2018-08-21T05:02:53.694Z,1023.38
2018-08-21T05:04:20.454Z,1023.38
2018-08-21T05:05:46.813Z,1023.42
2018-08-21T05:07:13.332Z,1023.43
2018-08-21T05:08:40.837Z,1023.46
2018-08-21T05:10:08.385Z,1023.50
2018-08-21T05:11:35.887Z,1023.50
2018-08-21T05:13:03.326Z,1023.49
2018-08-21T05:14:30.869Z,1023.49
2018-08-21T05:15:58.269Z,1023.50
2018-08-21T05:17:25.249Z,1023.51
2018-08-21T05:18:52.896Z,1023.54
2018-08-21T05:20:20.346Z,1023.59
2018-08-21T05:21:47.714Z,1023.62
2018-08-21T05:23:15.185Z,1023.70
2018-08-21T05:24:42.694Z,1023.69
2018-08-21T05:26:10.101Z,1023.73
2018-08-21T05:27:37.480Z,1023.69
2018-08-21T05:29:05.131Z,1023.75
2018-08-21T05:30:32.488Z,1023.79
2018-08-21T05:31:59.908Z,1023.82
2018-08-21T05:33:27.466Z,1023.85
2018-08-21T05:34:54.809Z,1023.89
2018-08-21T05:36:21.512Z,1023.92
2018-08-21T05:37:48.980Z,1023.93
2018-08-21T05:39:16.639Z,1023.94
2018-08-21T05:40:42.877Z,1023.94
2018-08-21T05:42:10.426Z,1023.96
2018-08-21T05:43:37.832Z,1023.95
2018-08-21T05:45:05.415Z,1023.96
2018-08-21T05:46:32.244Z,1023.98
2018-08-21T05:47:58.664Z,1024.02
2018-08-21T05:49:26.051Z,1024.01
2018-08-21T05:50:53.068Z,1023.98
2018-08-21T05:52:19.820Z,1024.01
2018-08-21T05:53:47.164Z,1024.01
2018-08-21T05:55:14.715Z,1024.00
2018-08-21T05:56:41.982Z,1023.98
2018-08-21T05:58:08.809Z,1023.96
2018-08-21T05:59:36.151Z,1023.92
2018-08-21T06:01:03.542Z,1023.94
2018-08-21T06:02:30.321Z,1023.95
2018-08-21T06:03:57.849Z,1023.97
2018-08-21T06:05:25.172Z,1023.97
2018-08-21T06:06:52.599Z,1023.99
2018-08-21T06:08:20.024Z,1023.99
2018-08-21T06:09:46.334Z,1024.02
2018-08-21T06:11:13.912Z,1024.03
2018-08-21T06:12:41.252Z,1024.04
2018-08-21T06:14:08.677Z,1024.04
2018-08-21T06:15:36.079Z,1024.04
2018-08-21T06:17:03.541Z,1024.06
2018-08-21T06:18:30.968Z,1024.05
2018-08-21T06:19:57.276Z,1024.07
2018-08-21T06:21:24.773Z,1024.07
2018-08-21T06:22:52.205Z,1024.10
2018-08-21T06:24:20.329Z,1024.11
2018-08-21T06:25:47.078Z,1024.12
2018-08-21T06:27:14.547Z,1024.14
2018-08-21T06:28:42.187Z,1024.17
2018-08-21T06:30:09.684Z,1024.17
2018-08-21T06:31:37.143Z,1024.20
2018-08-21T06:33:04.727Z,1024.19
2018-08-21T06:34:31.981Z,1024.21
2018-08-21T06:35:59.340Z,1024.18
2018-08-21T06:37:26.985Z,1024.20
2018-08-21T06:38:54.135Z,1024.17
2018-08-21T06:40:21.636Z,1024.22
2018-08-21T06:41:48.209Z,1024.22
2018-08-21T06:43:15.790Z,1024.24
2018-08-21T06:44:43.305Z,1024.27
2018-08-21T06:46:10.195Z,1024.29
2018-08-21T06:47:37.547Z,1024.30
2018-08-21T06:49:04.571Z,1024.32
2018-08-21T06:50:31.894Z,1024.31
2018-08-21T06:51:59.512Z,1024.32
2018-08-21T06:53:26.861Z,1024.31
2018-08-21T06:54:53.720Z,1024.32
2018-08-21T06:56:21.025Z,1024.32
2018-08-21T06:57:47.784Z,1024.35
2018-08-21T06:59:15.388Z,1024.37
2018-08-21T07:00:42.917Z,1024.34
2018-08-21T07:02:10.552Z,1024.33
2018-08-21T07:03:37.967Z,1024.34
2018-08-21T07:05:05.692Z,1024.31
2018-08-21T07:06:32.377Z,1024.29
2018-08-21T07:07:59.860Z,1024.33
2018-08-21T07:09:27.328Z,1024.34
2018-08-21T07:10:55.024Z,1024.36
2018-08-21T07:12:22.297Z,1024.37
2018-08-21T07:13:48.591Z,1024.36
2018-08-21T07:15:15.201Z,1024.35
2018-08-21T07:16:42.767Z,1024.36
2018-08-21T07:18:10.203Z,1024.36
2018-08-21T07:19:37.817Z,1024.40
2018-08-21T07:21:05.393Z,1024.44
2018-08-21T07:22:32.794Z,1024.46
2018-08-21T07:24:00.334Z,1024.49
2018-08-21T07:25:27.689Z,1024.49
2018-08-21T07:26:55.256Z,1024.47
2018-08-21T07:28:22.603Z,1024.47
2018-08-21T07:29:49.994Z,1024.48
2018-08-21T07:31:17.245Z,1024.47
2018-08-21T07:32:44.794Z,1024.46
2018-08-21T07:34:12.304Z,1024.51
2018-08-21T07:35:39.960Z,1024.54
2018-08-21T07:37:07.372Z,1024.54
2018-08-21T07:38:35.263Z,1024.52
2018-08-21T07:40:02.845Z,1024.53
2018-08-21T07:41:30.350Z,1024.52
2018-08-21T07:42:57.802Z,1024.50
2018-08-21T07:44:24.987Z,1024.52
2018-08-21T07:45:52.188Z,1024.56
2018-08-21T07:47:19.181Z,1024.57
2018-08-21T07:48:46.516Z,1024.58
2018-08-21T07:50:14.185Z,1024.58
2018-08-21T07:51:41.789Z,1024.59
2018-08-21T07:53:08.842Z,1024.59
2018-08-21T07:54:36.662Z,1024.59
2018-08-21T07:56:04.368Z,1024.56
2018-08-21T07:57:31.252Z,1024.57
2018-08-21T07:58:58.765Z,1024.58
2018-08-21T08:00:25.916Z,1024.58
2018-08-21T08:01:53.585Z,1024.63
2018-08-21T08:03:20.498Z,1024.62
2018-08-21T08:04:47.810Z,1024.62
2018-08-21T08:06:15.418Z,1024.61
2018-08-21T08:07:42.900Z,1024.59
2018-08-21T08:09:10.196Z,1024.56
2018-08-21T08:10:37.421Z,1024.58
2018-08-21T08:12:04.388Z,1024.55
2018-08-21T08:13:31.750Z,1024.60
2018-08-21T08:14:58.793Z,1024.58
2018-08-21T08:16:26.233Z,1024.58
2018-08-21T08:17:53.835Z,1024.58
2018-08-21T08:19:21.211Z,1024.60
2018-08-21T08:20:47.754Z,1024.57
2018-08-21T08:22:15.395Z,1024.58
2018-08-21T08:23:42.976Z,1024.55
2018-08-21T08:25:10.439Z,1024.57
2018-08-21T08:26:37.947Z,1024.58
2018-08-21T08:28:05.381Z,1024.58
2018-08-21T08:29:32.870Z,1024.59
2018-08-21T08:31:00.412Z,1024.59
2018-08-21T08:32:27.110Z,1024.58
2018-08-21T08:33:53.923Z,1024.61
2018-08-21T08:35:21.354Z,1024.64
2018-08-21T08:36:48.823Z,1024.61
2018-08-21T08:38:16.297Z,1024.63
2018-08-21T08:39:43.560Z,1024.61
2018-08-21T08:41:10.221Z,1024.59
2018-08-21T08:42:37.750Z,1024.62
2018-08-21T08:44:04.963Z,1024.66
2018-08-21T08:45:32.423Z,1024.61
2018-08-21T08:46:59.848Z,1024.65
2018-08-21T08:48:27.036Z,1024.61
2018-08-21T08:49:54.564Z,1024.62
2018-08-21T08:51:21.456Z,1024.61
2018-08-21T08:52:49.045Z,1024.61
2018-08-21T08:54:16.507Z,1024.63
2018-08-21T08:55:43.970Z,1024.65
2018-08-21T08:57:11.633Z,1024.66
2018-08-21T08:58:39.252Z,1024.65
2018-08-21T09:00:06.740Z,1024.67
2018-08-21T09:01:33.719Z,1024.69
2018-08-21T09:03:00.425Z,1024.73
2018-08-21T09:04:27.907Z,1024.74
2018-08-21T09:05:55.144Z,1024.70
2018-08-21T09:07:22.620Z,1024.70
2018-08-21T09:08:49.868Z,1024.73
2018-08-21T09:10:16.133Z,1024.69
2018-08-21T09:11:43.659Z,1024.68
2018-08-21T09:13:11.286Z,1024.65
2018-08-21T09:14:38.755Z,1024.63
2018-08-21T09:16:06.321Z,1024.64
2018-08-21T09:17:33.888Z,1024.66
2018-08-21T09:19:01.434Z,1024.67
2018-08-21T09:20:29.118Z,1024.62
2018-08-21T09:21:56.827Z,1024.67
2018-08-21T09:23:24.357Z,1024.68
2018-08-21T09:24:51.779Z,1024.70
2018-08-21T09:26:19.422Z,1024.68
2018-08-21T09:27:46.946Z,1024.69
2018-08-21T09:29:14.411Z,1024.71
2018-08-21T09:30:41.569Z,1024.70
2018-08-21T09:32:09.169Z,1024.73
2018-08-21T09:33:36.037Z,1024.76
2018-08-21T09:35:03.587Z,1024.81
2018-08-21T09:36:30.412Z,1024.79
2018-08-21T09:37:57.721Z,1024.79
2018-08-21T09:39:25.247Z,1024.77
2018-08-21T09:40:52.804Z,1024.77
2018-08-21T09:42:20.058Z,1024.78
2018-08-21T09:43:47.301Z,1024.71
2018-08-21T09:45:14.790Z,1024.67
2018-08-21T09:46:42.321Z,1024.61
2018-08-21T09:48:08.938Z,1024.62
2018-08-21T09:49:36.521Z,1024.60
2018-08-21T09:51:04.374Z,1024.62
2018-08-21T09:52:31.786Z,1024.56
2018-08-21T09:53:59.295Z,1024.55
2018-08-21T09:55:26.965Z,1024.56
2018-08-21T09:56:54.570Z,1024.56
2018-08-21T09:58:22.086Z,1024.59
2018-08-21T09:59:49.210Z,1024.58
2018-08-21T10:01:16.823Z,1024.64
2018-08-21T10:02:44.486Z,1024.66
2018-08-21T10:04:12.067Z,1024.69
2018-08-21T10:05:39.450Z,1024.67
2018-08-21T10:07:06.508Z,1024.67
2018-08-21T10:08:34.139Z,1024.65
2018-08-21T10:10:01.638Z,1024.63
2018-08-21T10:11:28.822Z,1024.63
2018-08-21T10:12:56.357Z,1024.59
2018-08-21T10:14:23.563Z,1024.66
2018-08-21T10:15:50.986Z,1024.63
2018-08-21T10:17:18.670Z,1024.59
2018-08-21T10:18:46.343Z,1024.59
2018-08-21T10:20:13.926Z,1024.51
2018-08-21T10:21:41.469Z,1024.48
2018-08-21T10:23:09.106Z,1024.47
2018-08-21T10:24:36.583Z,1024.50
2018-08-21T10:26:04.175Z,1024.50
2018-08-21T10:27:31.650Z,1024.49
2018-08-21T10:28:58.425Z,1024.49
2018-08-21T10:30:25.801Z,1024.48
2018-08-21T10:31:52.901Z,1024.44
2018-08-21T10:33:20.170Z,1024.44
2018-08-21T10:34:47.475Z,1024.46
2018-08-21T10:36:14.104Z,1024.45
2018-08-21T10:37:41.511Z,1024.49
2018-08-21T10:39:09.206Z,1024.52
2018-08-21T10:40:36.982Z,1024.46
2018-08-21T10:42:03.657Z,1024.46
2018-08-21T10:43:31.398Z,1024.45
2018-08-21T10:44:58.364Z,1024.45
2018-08-21T10:46:25.204Z,1024.47
2018-08-21T10:47:52.247Z,1024.48
2018-08-21T10:49:19.874Z,1024.51
2018-08-21T10:50:47.347Z,1024.51
2018-08-21T10:52:14.951Z,1024.53
2018-08-21T10:53:42.673Z,1024.53
2018-08-21T10:55:09.392Z,1024.56
2018-08-21T10:56:37.016Z,1024.57
2018-08-21T10:58:04.475Z,1024.60
2018-08-21T10:59:32.045Z,1024.60
2018-08-21T11:00:59.013Z,1024.53
2018-08-21T11:02:26.654Z,1024.59
2018-08-21T11:03:54.150Z,1024.57
2018-08-21T11:05:21.651Z,1024.59
2018-08-21T11:06:49.100Z,1024.57
2018-08-21T11:08:16.744Z,1024.57
2018-08-21T11:09:44.316Z,1024.57
2018-08-21T11:11:11.655Z,1024.55
2018-08-21T11:12:38.673Z,1024.53
2018-08-21T11:14:05.398Z,1024.56
2018-08-21T11:15:32.770Z,1024.56
2018-08-21T11:17:00.062Z,1024.56
2018-08-21T11:18:27.547Z,1024.55
2018-08-21T11:19:55.157Z,1024.55
2018-08-21T11:21:22.278Z,1024.57
2018-08-21T11:22:48.936Z,1024.57
2018-08-21T11:24:16.271Z,1024.59
2018-08-21T11:25:43.825Z,1024.60
2018-08-21T11:27:11.220Z,1024.62
2018-08-21T11:28:38.977Z,1024.61
2018-08-21T11:30:07.279Z,1024.57
2018-08-21T11:31:33.734Z,1024.57
2018-08-21T11:33:00.558Z,1024.52
2018-08-21T11:34:28.057Z,1024.53
2018-08-21T11:35:55.341Z,1024.50
2018-08-21T11:37:22.558Z,1024.46
2018-08-21T11:38:49.897Z,1024.45
2018-08-21T11:40:17.472Z,1024.45
2018-08-21T11:41:44.983Z,1024.43
2018-08-21T11:43:12.341Z,1024.48
2018-08-21T11:44:39.644Z,1024.43
2018-08-21T11:46:06.756Z,1024.45
2018-08-21T11:47:34.230Z,1024.47
2018-08-21T11:49:01.801Z,1024.44
2018-08-21T11:50:28.595Z,1024.43
2018-08-21T11:51:55.865Z,1024.45
2018-08-21T11:53:23.069Z,1024.43
2018-08-21T11:54:50.180Z,1024.45
2018-08-21T11:56:17.871Z,1024.44
2018-08-21T11:57:45.337Z,1024.41
2018-08-21T11:59:12.091Z,1024.42
2018-08-21T12:00:39.683Z,1024.40
2018-08-21T12:02:06.746Z,1024.38
2018-08-21T12:03:34.328Z,1024.33
2018-08-21T12:05:01.817Z,1024.34
2018-08-21T12:06:29.395Z,1024.37
2018-08-21T12:07:56.435Z,1024.33
2018-08-21T12:09:23.795Z,1024.34
2018-08-21T12:10:51.038Z,1024.30
2018-08-21T12:12:18.755Z,1024.25
2018-08-21T12:13:45.341Z,1024.24
2018-08-21T12:15:12.828Z,1024.27
2018-08-21T12:16:40.498Z,1024.27
2018-08-21T12:18:08.123Z,1024.26
2018-08-21T12:19:34.789Z,1024.25
2018-08-21T12:21:01.705Z,1024.22
2018-08-21T12:22:29.264Z,1024.20
2018-08-21T12:23:56.313Z,1024.18
2018-08-21T12:25:23.848Z,1024.16
2018-08-21T12:26:51.255Z,1024.15
2018-08-21T12:28:17.818Z,1024.17
2018-08-21T12:29:45.502Z,1024.19
2018-08-21T12:31:13.211Z,1024.17
2018-08-21T12:32:40.847Z,1024.21
2018-08-21T12:34:08.400Z,1024.18
2018-08-21T12:35:35.868Z,1024.15
2018-08-21T12:37:03.412Z,1024.13
2018-08-21T12:38:30.932Z,1024.13
2018-08-21T12:39:58.495Z,1024.13
2018-08-21T12:41:26.094Z,1024.12
2018-08-21T12:42:53.503Z,1024.11
2018-08-21T12:44:20.711Z,1024.10
2018-08-21T12:45:47.516Z,1024.06
2018-08-21T12:47:14.650Z,1024.02
2018-08-21T12:48:41.325Z,1023.98
2018-08-21T12:50:08.313Z,1023.98
2018-08-21T12:51:36.034Z,1023.94
2018-08-21T12:53:03.744Z,1023.93
2018-08-21T12:54:31.327Z,1023.94
2018-08-21T12:55:58.594Z,1023.93
2018-08-21T12:57:25.901Z,1023.94
2018-08-21T12:58:52.965Z,1023.98
2018-08-21T13:00:20.433Z,1023.95
2018-08-21T13:01:48.125Z,1023.95
2018-08-21T13:03:14.962Z,1023.96
2018-08-21T13:04:42.595Z,1023.96
2018-08-21T13:06:10.199Z,1023.95
2018-08-21T13:07:37.929Z,1023.90
2018-08-21T13:09:05.631Z,1023.86
2018-08-21T13:10:32.993Z,1023.86
2018-08-21T13:12:00.533Z,1023.89
2018-08-21T13:13:27.045Z,1023.91
2018-08-21T13:14:54.549Z,1023.90
2018-08-21T13:16:22.081Z,1023.88
2018-08-21T13:17:49.632Z,1023.87
2018-08-21T13:19:17.224Z,1023.85
2018-08-21T13:20:44.756Z,1023.84
2018-08-21T13:22:12.448Z,1023.80
2018-08-21T13:23:39.925Z,1023.80
2018-08-21T13:25:07.561Z,1023.76
2018-08-21T13:26:35.133Z,1023.75
2018-08-21T13:28:01.802Z,1023.72
2018-08-21T13:29:29.347Z,1023.73
2018-08-21T13:30:56.830Z,1023.76
2018-08-21T13:32:24.036Z,1023.75
2018-08-21T13:33:51.509Z,1023.76
2018-08-21T13:35:17.981Z,1023.81
2018-08-21T13:36:44.866Z,1023.79
2018-08-21T13:38:12.263Z,1023.76
2018-08-21T13:39:40.088Z,1023.79
2018-08-21T13:41:07.854Z,1023.83
2018-08-21T13:42:35.291Z,1023.82
2018-08-21T13:44:02.816Z,1023.85
2018-08-21T13:45:30.361Z,1023.87
2018-08-21T13:46:57.149Z,1023.84
2018-08-21T13:48:24.753Z,1023.85
2018-08-21T13:49:51.774Z,1023.84
2018-08-21T13:51:19.104Z,1023.83
2018-08-21T13:52:45.875Z,1023.85
2018-08-21T13:54:13.472Z,1023.81
2018-08-21T13:55:40.730Z,1023.82
2018-08-21T13:57:08.369Z,1023.81
2018-08-21T13:58:35.977Z,1023.85
2018-08-21T14:00:03.662Z,1023.84
2018-08-21T14:01:31.022Z,1023.85
2018-08-21T14:02:58.628Z,1023.86
2018-08-21T14:04:26.166Z,1023.88
2018-08-21T14:05:53.805Z,1023.89
2018-08-21T14:07:21.118Z,1023.89
2018-08-21T14:08:48.495Z,1023.90
2018-08-21T14:10:15.858Z,1023.88
2018-08-21T14:11:43.341Z,1023.92
2018-08-21T14:13:10.870Z,1023.91
2018-08-21T14:14:37.980Z,1023.90
2018-08-21T14:16:05.480Z,1023.88
2018-08-21T14:17:31.880Z,1023.92
2018-08-21T14:18:59.462Z,1023.91
2018-08-21T14:20:26.467Z,1023.89
2018-08-21T14:21:53.783Z,1023.91
2018-08-21T14:23:21.370Z,1023.92
2018-08-21T14:24:48.963Z,1023.95
2018-08-21T14:26:16.625Z,1023.93
2018-08-21T14:27:44.153Z,1023.91
2018-08-21T14:29:11.620Z,1023.91
2018-08-21T14:30:39.245Z,1023.91
2018-08-21T14:32:06.843Z,1023.91
2018-08-21T14:33:34.474Z,1023.93
2018-08-21T14:35:02.023Z,1023.97
2018-08-21T14:36:29.494Z,1023.95
2018-08-21T14:37:56.309Z,1023.94
2018-08-21T14:39:23.236Z,1023.95
2018-08-21T14:40:50.736Z,1023.95
2018-08-21T14:42:18.551Z,1024.00
2018-08-21T14:43:46.247Z,1024.00
2018-08-21T14:45:13.876Z,1023.98
2018-08-21T14:46:40.764Z,1024.01
2018-08-21T14:48:08.444Z,1024.01
2018-08-21T14:49:36.107Z,1024.02
2018-08-21T14:51:03.572Z,1023.96
2018-08-21T14:52:30.945Z,1023.96
2018-08-21T14:53:58.566Z,1023.96
2018-08-21T14:55:25.982Z,1023.95
2018-08-21T14:56:53.508Z,1024.02
2018-08-21T14:58:20.685Z,1024.02
2018-08-21T14:59:48.371Z,1024.01
2018-08-21T15:01:15.254Z,1023.98
2018-08-21T15:02:42.967Z,1023.97
2018-08-21T15:04:09.416Z,1023.97
2018-08-21T15:05:36.912Z,1023.96
2018-08-21T15:07:03.613Z,1023.94
2018-08-21T15:08:31.118Z,1023.96
2018-08-21T15:09:58.576Z,1023.96
2018-08-21T15:11:25.136Z,1023.97
2018-08-21T15:12:52.664Z,1023.95
2018-08-21T15:14:20.042Z,1023.96
2018-08-21T15:15:47.767Z,1023.95
2018-08-21T15:17:14.223Z,1023.92
2018-08-21T15:18:41.977Z,1023.91
2018-08-21T15:20:09.575Z,1023.95
2018-08-21T15:21:36.082Z,1023.96
2018-08-21T15:23:03.777Z,1023.97
2018-08-21T15:24:31.229Z,1023.98
2018-08-21T15:25:57.865Z,1023.94
2018-08-21T15:27:25.390Z,1023.95
2018-08-21T15:28:52.919Z,1023.94
2018-08-21T15:30:20.526Z,1023.91
2018-08-21T15:31:48.085Z,1023.92
2018-08-21T15:33:15.617Z,1023.94
2018-08-21T15:34:43.246Z,1023.96
2018-08-21T15:36:08.583Z,1023.98
2018-08-21T15:37:36.249Z,1024.00
2018-08-21T15:39:03.873Z,1023.99
2018-08-21T15:40:31.540Z,1023.96
2018-08-21T15:41:58.998Z,1024.00
2018-08-21T15:43:26.299Z,1024.01
2018-08-21T15:44:53.484Z,1024.05
2018-08-21T15:46:21.065Z,1024.05
2018-08-21T15:47:48.507Z,1024.03
2018-08-21T15:49:16.057Z,1024.02
2018-08-21T15:50:43.691Z,1023.99
2018-08-21T15:52:11.318Z,1023.95
2018-08-21T15:53:37.866Z,1023.96
2018-08-21T15:55:05.307Z,1023.96
2018-08-21T15:56:32.952Z,1023.96
2018-08-21T15:58:00.703Z,1023.97
2018-08-21T15:59:28.136Z,1023.97
2018-08-21T16:00:55.767Z,1023.98
2018-08-21T16:02:22.970Z,1023.98
2018-08-21T16:03:50.556Z,1023.99
2018-08-21T16:05:18.260Z,1023.98
2018-08-21T16:06:45.768Z,1023.96
2018-08-21T16:08:13.331Z,1023.97
2018-08-21T16:09:41.001Z,1024.00
2018-08-21T16:11:08.580Z,1024.00
2018-08-21T16:12:35.925Z,1023.96
2018-08-21T16:14:02.011Z,1023.97
2018-08-21T16:15:28.858Z,1023.91
2018-08-21T16:16:55.448Z,1023.88
2018-08-21T16:18:23.097Z,1023.88
2018-08-21T16:19:49.849Z,1023.86
2018-08-21T16:21:17.463Z,1023.88
2018-08-21T16:22:44.896Z,1023.86
2018-08-21T16:24:12.485Z,1023.84
2018-08-21T16:25:39.943Z,1023.86
2018-08-21T16:27:07.723Z,1023.85
2018-08-21T16:28:35.239Z,1023.83
2018-08-21T16:30:02.684Z,1023.84
2018-08-21T16:31:30.342Z,1023.85
2018-08-21T16:32:57.921Z,1023.84
2018-08-21T16:34:25.152Z,1023.83
2018-08-21T16:35:52.507Z,1023.83
2018-08-21T16:37:19.853Z,1023.81
2018-08-21T16:38:47.599Z,1023.79
2018-08-21T16:40:15.511Z,1023.77
2018-08-21T16:41:42.656Z,1023.79
2018-08-21T16:43:10.205Z,1023.80
2018-08-21T16:44:36.752Z,1023.83
2018-08-21T16:46:04.346Z,1023.82
2018-08-21T16:47:31.016Z,1023.81
2018-08-21T16:48:58.309Z,1023.82
2018-08-21T16:50:25.871Z,1023.79
2018-08-21T16:51:53.441Z,1023.77
2018-08-21T16:53:20.786Z,1023.77
2018-08-21T16:54:48.150Z,1023.76
2018-08-21T16:56:14.686Z,1023.75
2018-08-21T16:57:42.117Z,1023.77
2018-08-21T16:59:09.693Z,1023.74
2018-08-21T17:00:37.202Z,1023.73
2018-08-21T17:02:04.997Z,1023.75
2018-08-21T17:03:32.415Z,1023.72
2018-08-21T17:04:58.644Z,1023.71
2018-08-21T17:06:26.190Z,1023.69
2018-08-21T17:07:53.697Z,1023.68
2018-08-21T17:09:21.316Z,1023.67
2018-08-21T17:10:48.798Z,1023.66
2018-08-21T17:12:16.285Z,1023.66
2018-08-21T17:13:42.916Z,1023.65
2018-08-21T17:15:10.206Z,1023.67
2018-08-21T17:16:37.748Z,1023.70
2018-08-21T17:18:05.467Z,1023.73
2018-08-21T17:19:33.010Z,1023.70
2018-08-21T17:21:00.670Z,1023.67
2018-08-21T17:22:27.993Z,1023.69
2018-08-21T17:23:55.729Z,1023.71
2018-08-21T17:25:22.092Z,1023.73
2018-08-21T17:26:48.403Z,1023.74
2018-08-21T17:28:16.106Z,1023.77
2018-08-21T17:29:43.547Z,1023.78
2018-08-21T17:31:11.163Z,1023.81
2018-08-21T17:32:38.749Z,1023.84
2018-08-21T17:34:06.270Z,1023.85
2018-08-21T17:35:33.939Z,1023.85
2018-08-21T17:37:00.057Z,1023.87
2018-08-21T17:38:29.734Z,1023.86
2018-08-21T17:39:54.979Z,1023.88
2018-08-21T17:41:22.371Z,1023.87
2018-08-21T17:42:50.783Z,1023.85
2018-08-21T17:44:16.174Z,1023.85
2018-08-21T17:45:43.646Z,1023.86
2018-08-21T17:47:10.348Z,1023.85
2018-08-21T17:48:37.889Z,1023.85
2018-08-21T17:50:05.424Z,1023.85
2018-08-21T17:51:32.129Z,1023.85
2018-08-21T17:52:59.507Z,1023.86
2018-08-21T17:54:27.137Z,1023.85
2018-08-21T17:55:54.610Z,1023.85
2018-08-21T17:57:22.223Z,1023.84
2018-08-21T17:58:49.509Z,1023.86
2018-08-21T18:00:16.987Z,1023.85
2018-08-21T18:01:44.605Z,1023.86
2018-08-21T18:03:12.196Z,1023.85
2018-08-21T18:04:39.746Z,1023.87
2018-08-21T18:06:07.203Z,1023.88
2018-08-21T18:07:34.711Z,1023.86
2018-08-21T18:09:02.249Z,1023.88
2018-08-21T18:10:29.681Z,1023.88
2018-08-21T18:11:57.059Z,1023.88
2018-08-21T18:13:25.124Z,1023.89
2018-08-21T18:14:50.505Z,1023.90
2018-08-21T18:16:17.973Z,1023.91
2018-08-21T18:17:45.540Z,1023.90
2018-08-21T18:19:16.189Z,1023.90